sensor_id;sensor_type;location;lat;lon;timestamp;pressure;altitude;pressure_sealevel;temperature;humidity
68197;BME280;55019;49.382;11.358;2022-10-04T00:01:48;97436.25;;;5.44;90.63
68197;BME280;55019;49.382;11.358;2022-10-04T00:04:31;97444.09;;;5.53;90.23
68197;BME280;55019;49.382;11.358;2022-10-04T00:07:06;97433.72;;;5.55;89.69
68197;BME280;55019;49.382;11.358;2022-10-04T00:09:43;97424.63;;;5.51;89.65
68197;BME280;55019;49.382;11.358;2022-10-04T00:12:40;97424.88;;;5.59;89.50
68197;BME280;55019;49.382;11.358;2022-10-04T00:15:32;97423.25;;;5.58;89.16
68197;BME280;55019;49.382;11.358;2022-10-04T00:25:48;97408.56;;;5.49;89.42
68197;BME280;55019;49.382;11.358;2022-10-04T00:33:35;97423.81;;;5.27;89.82
68197;BME280;55019;49.382;11.358;2022-10-04T00:46:42;97427.00;;;5.07;89.61
68197;BME280;55019;49.382;11.358;2022-10-04T00:49:10;97421.00;;;5.19;89.03
68197;BME280;55019;49.382;11.358;2022-10-04T00:51:46;97418.41;;;5.08;89.68
68197;BME280;55019;49.382;11.358;2022-10-04T00:56:50;97410.28;;;4.90;90.95
68197;BME280;55019;49.382;11.358;2022-10-04T00:59:42;97415.00;;;4.84;91.21
68197;BME280;55019;49.382;11.358;2022-10-04T01:05:03;97397.81;;;4.86;90.81
68197;BME280;55019;49.382;11.358;2022-10-04T01:07:47;97389.78;;;4.90;90.65
68197;BME280;55019;49.382;11.358;2022-10-04T01:10:46;97396.06;;;4.86;91.37
68197;BME280;55019;49.382;11.358;2022-10-04T01:13:20;97394.47;;;4.96;90.62
68197;BME280;55019;49.382;11.358;2022-10-04T01:15:51;97389.56;;;4.93;89.93
68197;BME280;55019;49.382;11.358;2022-10-04T01:25:57;97382.09;;;4.90;89.80
68197;BME280;55019;49.382;11.358;2022-10-04T01:28:23;97379.72;;;4.76;89.72
68197;BME280;55019;49.382;11.358;2022-10-04T01:30:49;97377.34;;;4.86;89.81
68197;BME280;55019;49.382;11.358;2022-10-04T01:33:15;97371.53;;;4.71;89.97
68197;BME280;55019;49.382;11.358;2022-10-04T01:35:41;97373.84;;;4.87;90.16
68197;BME280;55019;49.382;11.358;2022-10-04T01:38:06;97373.22;;;4.83;89.85
68197;BME280;55019;49.382;11.358;2022-10-04T01:40:41;97372.47;;;4.70;91.93
68197;BME280;55019;49.382;11.358;2022-10-04T01:43:13;97384.47;;;4.57;93.73
68197;BME280;55019;49.382;11.358;2022-10-04T01:45:55;97377.22;;;4.51;94.10
68197;BME280;55019;49.382;11.358;2022-10-04T01:48:25;97383.53;;;4.58;92.84
68197;BME280;55019;49.382;11.358;2022-10-04T01:51:07;97367.56;;;4.67;91.79
68197;BME280;55019;49.382;11.358;2022-10-04T01:53:48;97373.28;;;4.71;90.91
68197;BME280;55019;49.382;11.358;2022-10-04T01:56:18;97371.88;;;4.54;91.50
68197;BME280;55019;49.382;11.358;2022-10-04T01:58:51;97372.66;;;4.44;92.29
68197;BME280;55019;49.382;11.358;2022-10-04T02:01:26;97381.38;;;4.29;92.67
68197;BME280;55019;49.382;11.358;2022-10-04T02:04:27;97388.97;;;4.30;92.77
68197;BME280;55019;49.382;11.358;2022-10-04T02:06:51;97391.59;;;4.41;91.95
68197;BME280;55019;49.382;11.358;2022-10-04T02:09:34;97396.22;;;4.36;92.32
68197;BME280;55019;49.382;11.358;2022-10-04T02:12:03;97387.50;;;4.39;93.16
68197;BME280;55019;49.382;11.358;2022-10-04T02:14:31;97385.25;;;4.47;92.77
68197;BME280;55019;49.382;11.358;2022-10-04T02:16:58;97386.38;;;4.43;92.21
68197;BME280;55019;49.382;11.358;2022-10-04T02:19:32;97389.91;;;4.65;91.06
68197;BME280;55019;49.382;11.358;2022-10-04T02:22:01;97377.09;;;4.65;90.96
68197;BME280;55019;49.382;11.358;2022-10-04T02:24:28;97372.72;;;4.55;91.22
68197;BME280;55019;49.382;11.358;2022-10-04T02:26:55;97365.25;;;4.52;91.77
68197;BME280;55019;49.382;11.358;2022-10-04T02:29:20;97367.25;;;4.36;93.15
68197;BME280;55019;49.382;11.358;2022-10-04T02:31:47;97366.72;;;4.31;93.60
68197;BME280;55019;49.382;11.358;2022-10-04T02:34:33;97365.28;;;4.39;92.70
68197;BME280;55019;49.382;11.358;2022-10-04T02:37:04;97369.72;;;4.25;92.67
68197;BME280;55019;49.382;11.358;2022-10-04T02:39:39;97365.94;;;4.30;93.09
68197;BME280;55019;49.382;11.358;2022-10-04T02:42:11;97368.09;;;4.24;92.86
68197;BME280;55019;49.382;11.358;2022-10-04T02:44:40;97369.28;;;4.31;91.87
68197;BME280;55019;49.382;11.358;2022-10-04T02:47:12;97358.13;;;4.32;92.62
68197;BME280;55019;49.382;11.358;2022-10-04T02:49:43;97347.03;;;4.08;92.19
68197;BME280;55019;49.382;11.358;2022-10-04T02:52:36;97354.59;;;4.22;92.00
68197;BME280;55019;49.382;11.358;2022-10-04T02:57:32;97343.88;;;4.05;93.07
68197;BME280;55019;49.382;11.358;2022-10-04T03:05:33;97341.97;;;4.31;90.79
68197;BME280;55019;49.382;11.358;2022-10-04T03:07:58;97341.41;;;4.16;92.50
68197;BME280;55019;49.382;11.358;2022-10-04T03:10:24;97336.81;;;4.21;92.55
68197;BME280;55019;49.382;11.358;2022-10-04T03:12:50;97335.25;;;4.18;91.83
68197;BME280;55019;49.382;11.358;2022-10-04T03:15:18;97345.63;;;4.17;92.26
68197;BME280;55019;49.382;11.358;2022-10-04T03:17:44;97347.13;;;4.19;93.25
68197;BME280;55019;49.382;11.358;2022-10-04T03:20:11;97341.31;;;4.17;93.13
68197;BME280;55019;49.382;11.358;2022-10-04T03:22:43;97328.56;;;4.28;92.88
68197;BME280;55019;49.382;11.358;2022-10-04T03:28:09;97357.84;;;4.24;93.43
68197;BME280;55019;49.382;11.358;2022-10-04T03:30:35;97356.69;;;4.40;92.87
68197;BME280;55019;49.382;11.358;2022-10-04T03:33:01;97356.38;;;4.45;91.88
68197;BME280;55019;49.382;11.358;2022-10-04T03:35:31;97344.13;;;4.25;92.97
68197;BME280;55019;49.382;11.358;2022-10-04T03:37:57;97348.22;;;4.40;93.46
68197;BME280;55019;49.382;11.358;2022-10-04T03:40:27;97357.53;;;4.41;93.00
68197;BME280;55019;49.382;11.358;2022-10-04T03:42:54;97356.19;;;4.35;93.58
68197;BME280;55019;49.382;11.358;2022-10-04T03:45:20;97338.81;;;4.64;92.77
68197;BME280;55019;49.382;11.358;2022-10-04T03:47:49;97345.22;;;4.46;92.29
68197;BME280;55019;49.382;11.358;2022-10-04T03:50:31;97353.75;;;4.34;93.47
68197;BME280;55019;49.382;11.358;2022-10-04T03:53:07;97357.53;;;4.41;93.67
68197;BME280;55019;49.382;11.358;2022-10-04T03:55:40;97365.41;;;4.38;93.78
68197;BME280;55019;49.382;11.358;2022-10-04T03:58:12;97361.84;;;4.28;93.89
68197;BME280;55019;49.382;11.358;2022-10-04T04:00:52;97345.41;;;4.20;94.25
68197;BME280;55019;49.382;11.358;2022-10-04T04:03:27;97348.31;;;4.38;93.63
68197;BME280;55019;49.382;11.358;2022-10-04T04:05:57;97353.94;;;4.31;94.21
68197;BME280;55019;49.382;11.358;2022-10-04T04:08:31;97345.78;;;4.26;95.00
68197;BME280;55019;49.382;11.358;2022-10-04T04:10:59;97341.47;;;4.39;94.49
68197;BME280;55019;49.382;11.358;2022-10-04T04:16:08;97347.28;;;4.41;94.55
68197;BME280;55019;49.382;11.358;2022-10-04T04:18:37;97333.34;;;4.45;94.60
68197;BME280;55019;49.382;11.358;2022-10-04T04:21:05;97334.50;;;4.41;95.42
68197;BME280;55019;49.382;11.358;2022-10-04T04:23:38;97327.19;;;4.47;95.71
68197;BME280;55019;49.382;11.358;2022-10-04T04:26:44;97326.88;;;4.52;94.71
68197;BME280;55019;49.382;11.358;2022-10-04T04:32:03;97325.59;;;4.57;94.88
68197;BME280;55019;49.382;11.358;2022-10-04T04:34:33;97324.75;;;4.69;93.95
68197;BME280;55019;49.382;11.358;2022-10-04T04:37:00;97318.28;;;4.53;93.47
68197;BME280;55019;49.382;11.358;2022-10-04T04:39:28;97317.88;;;4.46;93.95
68197;BME280;55019;49.382;11.358;2022-10-04T04:42:36;97315.50;;;4.56;93.92
68197;BME280;55019;49.382;11.358;2022-10-04T04:45:12;97315.81;;;4.51;93.83
68197;BME280;55019;49.382;11.358;2022-10-04T04:47:45;97311.97;;;4.69;93.10
68197;BME280;55019;49.382;11.358;2022-10-04T04:50:23;97313.44;;;4.61;94.13
68197;BME280;55019;49.382;11.358;2022-10-04T04:53:02;97317.41;;;4.65;94.21
68197;BME280;55019;49.382;11.358;2022-10-04T04:55:33;97309.97;;;4.73;93.63
68197;BME280;55019;49.382;11.358;2022-10-04T04:58:02;97308.91;;;4.64;93.67
68197;BME280;55019;49.382;11.358;2022-10-04T05:00:30;97328.81;;;4.72;94.23
68197;BME280;55019;49.382;11.358;2022-10-04T05:02:59;97341.09;;;4.79;94.29
68197;BME280;55019;49.382;11.358;2022-10-04T05:05:26;97338.41;;;4.81;94.48
68197;BME280;55019;49.382;11.358;2022-10-04T05:08:20;97344.75;;;4.88;94.35
68197;BME280;55019;49.382;11.358;2022-10-04T05:13:41;97345.84;;;5.07;93.03
68197;BME280;55019;49.382;11.358;2022-10-04T05:19:04;97341.97;;;4.91;92.94
68197;BME280;55019;49.382;11.358;2022-10-04T05:21:31;97335.47;;;4.98;93.19
68197;BME280;55019;49.382;11.358;2022-10-04T05:24:12;97339.41;;;4.91;93.65
68197;BME280;55019;49.382;11.358;2022-10-04T05:26:42;97339.84;;;4.85;94.29
68197;BME280;55019;49.382;11.358;2022-10-04T05:29:15;97331.63;;;5.03;93.93
68197;BME280;55019;49.382;11.358;2022-10-04T05:34:21;97328.97;;;5.05;93.40
68197;BME280;55019;49.382;11.358;2022-10-04T05:42:41;97334.19;;;5.03;94.43
68197;BME280;55019;49.382;11.358;2022-10-04T05:45:17;97326.91;;;5.21;94.15
68197;BME280;55019;49.382;11.358;2022-10-04T05:47:45;97331.81;;;5.24;94.81
68197;BME280;55019;49.382;11.358;2022-10-04T05:50:34;97339.75;;;5.32;94.13
68197;BME280;55019;49.382;11.358;2022-10-04T05:53:23;97343.03;;;5.34;94.61
68197;BME280;55019;49.382;11.358;2022-10-04T06:01:21;97332.34;;;5.40;93.94
68197;BME280;55019;49.382;11.358;2022-10-04T06:04:07;97338.66;;;5.47;93.67
68197;BME280;55019;49.382;11.358;2022-10-04T06:06:53;97334.47;;;5.57;93.14
68197;BME280;55019;49.382;11.358;2022-10-04T06:12:14;97317.44;;;5.56;92.80
68197;BME280;55019;49.382;11.358;2022-10-04T06:15:02;97312.41;;;5.43;93.54
68197;BME280;55019;49.382;11.358;2022-10-04T06:17:36;97326.66;;;5.58;94.09
68197;BME280;55019;49.382;11.358;2022-10-04T06:22:47;97339.22;;;5.61;94.81
68197;BME280;55019;49.382;11.358;2022-10-04T06:25:44;97333.06;;;5.63;94.72
68197;BME280;55019;49.382;11.358;2022-10-04T06:34:02;97342.09;;;5.91;93.65
68197;BME280;55019;49.382;11.358;2022-10-04T06:36:38;97362.63;;;6.02;93.22
68197;BME280;55019;49.382;11.358;2022-10-04T06:39:28;97363.56;;;6.01;93.44
68197;BME280;55019;49.382;11.358;2022-10-04T06:47:31;97369.50;;;6.12;93.57
68197;BME280;55019;49.382;11.358;2022-10-04T07:01:27;97360.50;;;6.40;94.63
68197;BME280;55019;49.382;11.358;2022-10-04T07:06:37;97362.41;;;6.80;92.44
68197;BME280;55019;49.382;11.358;2022-10-04T07:09:11;97353.06;;;6.90;91.93
68197;BME280;55019;49.382;11.358;2022-10-04T07:11:52;97346.69;;;7.05;91.43
68197;BME280;55019;49.382;11.358;2022-10-04T07:14:34;97347.22;;;7.08;91.66
68197;BME280;55019;49.382;11.358;2022-10-04T07:17:04;97344.66;;;7.08;92.18
68197;BME280;55019;49.382;11.358;2022-10-04T07:19:53;97346.56;;;7.27;91.63
68197;BME280;55019;49.382;11.358;2022-10-04T07:27:33;97355.03;;;7.79;90.75
68197;BME280;55019;49.382;11.358;2022-10-04T07:30:15;97361.41;;;7.75;91.60
68197;BME280;55019;49.382;11.358;2022-10-04T07:32:45;97359.75;;;7.95;90.66
68197;BME280;55019;49.382;11.358;2022-10-04T07:35:29;97371.16;;;8.11;90.33
68197;BME280;55019;49.382;11.358;2022-10-04T07:38:09;97376.75;;;8.16;89.92
68197;BME280;55019;49.382;11.358;2022-10-04T07:41:05;97372.94;;;8.11;90.13
68197;BME280;55019;49.382;11.358;2022-10-04T07:43:38;97371.06;;;8.13;90.31
68197;BME280;55019;49.382;11.358;2022-10-04T07:46:36;97373.81;;;8.21;89.73
68197;BME280;55019;49.382;11.358;2022-10-04T07:49:12;97375.97;;;8.46;89.33
68197;BME280;55019;49.382;11.358;2022-10-04T07:52:01;97392.03;;;8.68;88.33
68197;BME280;55019;49.382;11.358;2022-10-04T07:57:23;97384.78;;;9.01;87.51
68197;BME280;55019;49.382;11.358;2022-10-04T08:00:20;97372.28;;;9.16;87.51
68197;BME280;55019;49.382;11.358;2022-10-04T08:05:40;97379.28;;;9.80;84.81
68197;BME280;55019;49.382;11.358;2022-10-04T08:10:44;97377.88;;;10.50;83.63
68197;BME280;55019;49.382;11.358;2022-10-04T08:21:32;97381.63;;;12.05;75.27
68197;BME280;55019;49.382;11.358;2022-10-04T08:24:18;97380.81;;;12.04;74.21
68197;BME280;55019;49.382;11.358;2022-10-04T08:38:12;97380.22;;;12.85;72.68
68197;BME280;55019;49.382;11.358;2022-10-04T08:49:37;97389.53;;;15.46;65.19
68197;BME280;55019;49.382;11.358;2022-10-04T09:22:34;97391.41;;;17.62;57.02
68197;BME280;55019;49.382;11.358;2022-10-04T09:37:00;97384.16;;;17.85;55.98
68197;BME280;55019;49.382;11.358;2022-10-04T09:47:30;97376.63;;;17.76;57.34
68197;BME280;55019;49.382;11.358;2022-10-04T10:01:34;97372.50;;;18.36;55.60
68197;BME280;55019;49.382;11.358;2022-10-04T10:09:30;97368.44;;;20.00;50.13
68197;BME280;55019;49.382;11.358;2022-10-04T10:12:38;97370.53;;;20.68;46.92
68197;BME280;55019;49.382;11.358;2022-10-04T10:18:44;97382.47;;;21.27;43.68
68197;BME280;55019;49.382;11.358;2022-10-04T10:46:00;97365.63;;;21.35;43.37
68197;BME280;55019;49.382;11.358;2022-10-04T11:00:58;97359.00;;;23.55;35.31
68197;BME280;55019;49.382;11.358;2022-10-04T11:11:57;97362.25;;;24.21;34.77
68197;BME280;55019;49.382;11.358;2022-10-04T11:20:21;97342.84;;;23.52;34.34
68197;BME280;55019;49.382;11.358;2022-10-04T11:40:22;97340.25;;;25.01;32.50
68197;BME280;55019;49.382;11.358;2022-10-04T12:00:21;97309.31;;;23.93;32.98
68197;BME280;55019;49.382;11.358;2022-10-04T12:05:36;97322.16;;;24.70;30.83
68197;BME280;55019;49.382;11.358;2022-10-04T12:10:38;97310.06;;;24.74;31.29
68197;BME280;55019;49.382;11.358;2022-10-04T12:13:19;97306.63;;;23.70;31.16
68197;BME280;55019;49.382;11.358;2022-10-04T12:16:43;97316.31;;;23.36;32.40
68197;BME280;55019;49.382;11.358;2022-10-04T12:32:33;97310.44;;;21.59;36.95
68197;BME280;55019;49.382;11.358;2022-10-04T12:38:02;97309.25;;;23.18;34.09
68197;BME280;55019;49.382;11.358;2022-10-04T12:45:54;97287.34;;;23.18;33.55
68197;BME280;55019;49.382;11.358;2022-10-04T12:51:08;97294.50;;;23.29;36.38
68197;BME280;55019;49.382;11.358;2022-10-04T13:04:48;97288.22;;;21.55;36.05
68197;BME280;55019;49.382;11.358;2022-10-04T13:10:10;97298.06;;;21.04;38.04
68197;BME280;55019;49.382;11.358;2022-10-04T13:15:33;97300.22;;;19.48;40.40
68197;BME280;55019;49.382;11.358;2022-10-04T13:18:28;97299.41;;;19.74;44.60
68197;BME280;55019;49.382;11.358;2022-10-04T13:21:01;97292.53;;;19.99;41.69
68197;BME280;55019;49.382;11.358;2022-10-04T13:28:51;97309.09;;;18.34;44.85
68197;BME280;55019;49.382;11.358;2022-10-04T13:31:47;97306.13;;;18.44;44.67
68197;BME280;55019;49.382;11.358;2022-10-04T13:39:59;97288.50;;;19.90;41.15
68197;BME280;55019;49.382;11.358;2022-10-04T13:45:20;97299.75;;;20.29;42.32
68197;BME280;55019;49.382;11.358;2022-10-04T14:29:45;97288.50;;;17.63;48.73
68197;BME280;55019;49.382;11.358;2022-10-04T14:57:15;97274.91;;;17.53;48.82
68197;BME280;55019;49.382;11.358;2022-10-04T15:07:37;97266.69;;;17.56;47.93
68197;BME280;55019;49.382;11.358;2022-10-04T15:10:23;97263.47;;;16.92;49.15
68197;BME280;55019;49.382;11.358;2022-10-04T15:20:57;97266.56;;;16.02;53.45
68197;BME280;55019;49.382;11.358;2022-10-04T15:23:38;97257.75;;;15.74;52.33
68197;BME280;55019;49.382;11.358;2022-10-04T15:31:38;97256.44;;;15.41;54.82
68197;BME280;55019;49.382;11.358;2022-10-04T15:34:23;97252.75;;;15.36;55.91
68197;BME280;55019;49.382;11.358;2022-10-04T15:42:39;97252.28;;;14.87;56.51
68197;BME280;55019;49.382;11.358;2022-10-04T15:56:34;97243.19;;;14.31;59.33
68197;BME280;55019;49.382;11.358;2022-10-04T16:10:24;97246.97;;;13.50;62.79
68197;BME280;55019;49.382;11.358;2022-10-04T16:15:42;97239.06;;;13.35;63.46
68197;BME280;55019;49.382;11.358;2022-10-04T16:18:40;97242.81;;;13.25;63.68
68197;BME280;55019;49.382;11.358;2022-10-04T16:34:59;97251.31;;;12.70;65.86
68197;BME280;55019;49.382;11.358;2022-10-04T16:37:43;97250.81;;;12.50;69.06
68197;BME280;55019;49.382;11.358;2022-10-04T16:45:33;97253.59;;;12.07;71.20
68197;BME280;55019;49.382;11.358;2022-10-04T16:51:05;97265.91;;;11.80;72.89
68197;BME280;55019;49.382;11.358;2022-10-04T16:56:21;97263.84;;;11.58;73.47
68197;BME280;55019;49.382;11.358;2022-10-04T16:58:54;97266.22;;;11.51;73.56
68197;BME280;55019;49.382;11.358;2022-10-04T17:06:52;97269.59;;;11.09;75.42
68197;BME280;55019;49.382;11.358;2022-10-04T17:09:30;97260.00;;;11.02;75.80
68197;BME280;55019;49.382;11.358;2022-10-04T17:12:17;97269.88;;;11.06;75.81
68197;BME280;55019;49.382;11.358;2022-10-04T17:17:22;97267.91;;;10.83;77.38
68197;BME280;55019;49.382;11.358;2022-10-04T17:20:02;97265.53;;;10.72;77.70
68197;BME280;55019;49.382;11.358;2022-10-04T17:22:47;97264.72;;;10.71;78.24
68197;BME280;55019;49.382;11.358;2022-10-04T17:28:26;97274.16;;;10.45;79.72
68197;BME280;55019;49.382;11.358;2022-10-04T17:31:16;97269.72;;;10.55;79.68
68197;BME280;55019;49.382;11.358;2022-10-04T17:39:37;97273.81;;;10.31;80.51
68197;BME280;55019;49.382;11.358;2022-10-04T17:47:41;97280.03;;;10.20;81.40
68197;BME280;55019;49.382;11.358;2022-10-04T17:53:20;97279.84;;;9.95;82.88
68197;BME280;55019;49.382;11.358;2022-10-04T17:56:07;97283.41;;;9.85;83.97
68197;BME280;55019;49.382;11.358;2022-10-04T17:58:45;97277.66;;;9.91;83.53
68197;BME280;55019;49.382;11.358;2022-10-04T18:01:17;97284.19;;;9.85;83.67
68197;BME280;55019;49.382;11.358;2022-10-04T18:03:52;97288.41;;;9.86;84.11
68197;BME280;55019;49.382;11.358;2022-10-04T18:06:40;97288.00;;;9.81;83.71
68197;BME280;55019;49.382;11.358;2022-10-04T18:09:33;97287.81;;;9.65;84.59
68197;BME280;55019;49.382;11.358;2022-10-04T18:12:00;97286.75;;;9.58;85.04
68197;BME280;55019;49.382;11.358;2022-10-04T18:15:09;97288.75;;;9.64;84.78
68197;BME280;55019;49.382;11.358;2022-10-04T18:17:47;97288.94;;;9.53;84.45
68197;BME280;55019;49.382;11.358;2022-10-04T18:23:23;97285.81;;;9.50;84.73
68197;BME280;55019;49.382;11.358;2022-10-04T18:25:53;97289.63;;;9.36;85.61
68197;BME280;55019;49.382;11.358;2022-10-04T18:28:21;97282.94;;;9.43;85.17
68197;BME280;55019;49.382;11.358;2022-10-04T18:33:24;97281.47;;;9.31;86.06
68197;BME280;55019;49.382;11.358;2022-10-04T18:36:19;97271.16;;;9.31;86.16
68197;BME280;55019;49.382;11.358;2022-10-04T18:39:00;97271.28;;;9.39;85.75
68197;BME280;55019;49.382;11.358;2022-10-04T18:41:27;97274.69;;;9.30;86.04
68197;BME280;55019;49.382;11.358;2022-10-04T18:44:15;97270.94;;;9.15;86.61
68197;BME280;55019;49.382;11.358;2022-10-04T18:46:41;97273.78;;;9.03;86.79
68197;BME280;55019;49.382;11.358;2022-10-04T18:49:16;97275.56;;;9.02;87.23
68197;BME280;55019;49.382;11.358;2022-10-04T18:54:59;97270.41;;;8.93;86.65
68197;BME280;55019;49.382;11.358;2022-10-04T18:57:35;97286.53;;;8.95;86.47
68197;BME280;55019;49.382;11.358;2022-10-04T19:00:21;97277.84;;;8.86;86.73
68197;BME280;55019;49.382;11.358;2022-10-04T19:05:50;97284.13;;;8.93;85.94
68197;BME280;55019;49.382;11.358;2022-10-04T19:08:33;97283.00;;;8.86;86.50
68197;BME280;55019;49.382;11.358;2022-10-04T19:11:23;97271.88;;;8.76;86.47
68197;BME280;55019;49.382;11.358;2022-10-04T19:14:36;97279.06;;;8.82;86.24
68197;BME280;55019;49.382;11.358;2022-10-04T19:27:56;97290.88;;;8.75;86.06
68197;BME280;55019;49.382;11.358;2022-10-04T19:30:37;97299.00;;;8.61;86.13
68197;BME280;55019;49.382;11.358;2022-10-04T19:33:25;97294.13;;;8.68;86.06
68197;BME280;55019;49.382;11.358;2022-10-04T19:36:08;97296.53;;;8.41;87.47
68197;BME280;55019;49.382;11.358;2022-10-04T19:38:41;97302.66;;;8.50;87.29
68197;BME280;55019;49.382;11.358;2022-10-04T19:41:43;97302.13;;;8.56;86.55
68197;BME280;55019;49.382;11.358;2022-10-04T19:44:29;97308.47;;;8.61;86.15
68197;BME280;55019;49.382;11.358;2022-10-04T19:53:12;97309.78;;;8.37;87.58
68197;BME280;55019;49.382;11.358;2022-10-04T19:55:55;97306.78;;;8.32;88.02
68197;BME280;55019;49.382;11.358;2022-10-04T19:58:41;97308.16;;;8.36;87.47
68197;BME280;55019;49.382;11.358;2022-10-04T20:01:10;97310.66;;;8.47;87.45
68197;BME280;55019;49.382;11.358;2022-10-04T20:03:36;97316.56;;;8.38;88.06
68197;BME280;55019;49.382;11.358;2022-10-04T20:06:02;97309.44;;;8.51;86.90
68197;BME280;55019;49.382;11.358;2022-10-04T20:11:24;97306.66;;;8.33;87.31
68197;BME280;55019;49.382;11.358;2022-10-04T20:19:35;97318.97;;;8.30;88.78
68197;BME280;55019;49.382;11.358;2022-10-04T20:27:04;97314.94;;;8.37;88.20
68197;BME280;55019;49.382;11.358;2022-10-04T20:32:06;97312.47;;;8.26;88.36
68197;BME280;55019;49.382;11.358;2022-10-04T20:37:07;97324.16;;;8.09;88.76
68197;BME280;55019;49.382;11.358;2022-10-04T20:47:45;97341.13;;;8.12;88.17
68197;BME280;55019;49.382;11.358;2022-10-04T20:52:45;97337.72;;;8.11;87.93
68197;BME280;55019;49.382;11.358;2022-10-04T20:55:17;97346.34;;;8.21;87.54
68197;BME280;55019;49.382;11.358;2022-10-04T20:57:43;97332.50;;;7.92;88.91
68197;BME280;55019;49.382;11.358;2022-10-04T21:00:20;97330.59;;;7.94;88.76
68197;BME280;55019;49.382;11.358;2022-10-04T21:02:46;97335.28;;;7.80;89.59
68197;BME280;55019;49.382;11.358;2022-10-04T21:05:14;97345.56;;;7.80;90.02
68197;BME280;55019;49.382;11.358;2022-10-04T21:07:40;97355.84;;;7.80;89.81
68197;BME280;55019;49.382;11.358;2022-10-04T21:10:15;97343.13;;;7.78;89.80
68197;BME280;55019;49.382;11.358;2022-10-04T21:12:41;97347.81;;;7.94;89.14
68197;BME280;55019;49.382;11.358;2022-10-04T21:17:42;97349.38;;;7.85;90.05
68197;BME280;55019;49.382;11.358;2022-10-04T21:23:33;97345.09;;;7.95;89.12
68197;BME280;55019;49.382;11.358;2022-10-04T21:28:42;97349.25;;;7.87;89.19
68197;BME280;55019;49.382;11.358;2022-10-04T21:31:08;97347.63;;;7.86;89.99
68197;BME280;55019;49.382;11.358;2022-10-04T21:33:34;97356.78;;;7.79;90.46
68197;BME280;55019;49.382;11.358;2022-10-04T21:36:00;97362.88;;;7.78;89.52
68197;BME280;55019;49.382;11.358;2022-10-04T21:38:26;97365.44;;;7.78;89.59
68197;BME280;55019;49.382;11.358;2022-10-04T21:40:52;97356.19;;;7.66;89.60
68197;BME280;55019;49.382;11.358;2022-10-04T21:43:18;97361.75;;;7.71;89.15
68197;BME280;55019;49.382;11.358;2022-10-04T21:45:43;97354.22;;;7.79;88.58
68197;BME280;55019;49.382;11.358;2022-10-04T21:48:09;97349.31;;;7.76;88.82
68197;BME280;55019;49.382;11.358;2022-10-04T21:50:35;97353.28;;;7.59;89.50
68197;BME280;55019;49.382;11.358;2022-10-04T21:53:00;97344.09;;;7.57;90.44
68197;BME280;55019;49.382;11.358;2022-10-04T21:55:26;97358.94;;;7.53;89.85
68197;BME280;55019;49.382;11.358;2022-10-04T21:57:51;97347.84;;;7.53;90.30
68197;BME280;55019;49.382;11.358;2022-10-04T22:00:16;97354.38;;;7.57;90.58
68197;BME280;55019;49.382;11.358;2022-10-04T22:02:42;97347.84;;;7.53;90.58
68197;BME280;55019;49.382;11.358;2022-10-04T22:05:07;97350.84;;;7.58;90.82
68197;BME280;55019;49.382;11.358;2022-10-04T22:07:33;97354.88;;;7.51;90.73
68197;BME280;55019;49.382;11.358;2022-10-04T22:09:58;97346.00;;;7.64;89.56
68197;BME280;55019;49.382;11.358;2022-10-04T22:12:24;97348.22;;;7.69;89.72
68197;BME280;55019;49.382;11.358;2022-10-04T22:14:51;97344.63;;;7.60;90.08
68197;BME280;55019;49.382;11.358;2022-10-04T22:17:19;97343.84;;;7.60;90.31
68197;BME280;55019;49.382;11.358;2022-10-04T22:19:44;97335.16;;;7.61;89.67
68197;BME280;55019;49.382;11.358;2022-10-04T22:22:14;97349.03;;;7.49;90.91
68197;BME280;55019;49.382;11.358;2022-10-04T22:24:40;97344.78;;;7.59;90.61
68197;BME280;55019;49.382;11.358;2022-10-04T22:27:18;97337.31;;;7.56;90.89
68197;BME280;55019;49.382;11.358;2022-10-04T22:29:44;97342.72;;;7.53;90.69
68197;BME280;55019;49.382;11.358;2022-10-04T22:32:23;97345.13;;;7.54;90.15
68197;BME280;55019;49.382;11.358;2022-10-04T22:34:50;97335.06;;;7.42;90.52
68197;BME280;55019;49.382;11.358;2022-10-04T22:37:20;97342.78;;;7.42;90.75
68197;BME280;55019;49.382;11.358;2022-10-04T22:39:47;97332.97;;;7.36;90.74
68197;BME280;55019;49.382;11.358;2022-10-04T22:42:12;97334.59;;;7.37;90.72
68197;BME280;55019;49.382;11.358;2022-10-04T22:44:38;97338.09;;;7.36;90.79
68197;BME280;55019;49.382;11.358;2022-10-04T22:47:10;97340.69;;;7.36;90.06
68197;BME280;55019;49.382;11.358;2022-10-04T22:49:37;97342.81;;;7.31;90.55
68197;BME280;55019;49.382;11.358;2022-10-04T22:52:12;97336.03;;;7.30;90.95
68197;BME280;55019;49.382;11.358;2022-10-04T22:54:41;97340.94;;;7.33;90.33
68197;BME280;55019;49.382;11.358;2022-10-04T22:57:09;97336.53;;;7.24;91.02
68197;BME280;55019;49.382;11.358;2022-10-04T22:59:44;97338.06;;;7.26;91.05
68197;BME280;55019;49.382;11.358;2022-10-04T23:04:51;97332.78;;;7.28;90.78
68197;BME280;55019;49.382;11.358;2022-10-04T23:07:18;97312.78;;;7.31;91.18
68197;BME280;55019;49.382;11.358;2022-10-04T23:09:43;97311.53;;;7.26;91.17
68197;BME280;55019;49.382;11.358;2022-10-04T23:12:09;97307.50;;;7.33;91.16
68197;BME280;55019;49.382;11.358;2022-10-04T23:14:36;97312.66;;;7.33;91.03
68197;BME280;55019;49.382;11.358;2022-10-04T23:17:22;97306.22;;;7.38;91.36
68197;BME280;55019;49.382;11.358;2022-10-04T23:19:50;97302.25;;;7.34;91.10
68197;BME280;55019;49.382;11.358;2022-10-04T23:22:17;97298.75;;;7.35;90.80
68197;BME280;55019;49.382;11.358;2022-10-04T23:24:46;97284.38;;;7.33;90.77
68197;BME280;55019;49.382;11.358;2022-10-04T23:27:15;97295.25;;;7.36;90.88
68197;BME280;55019;49.382;11.358;2022-10-04T23:29:41;97297.03;;;7.25;91.73
68197;BME280;55019;49.382;11.358;2022-10-04T23:32:15;97293.78;;;7.23;91.47
68197;BME280;55019;49.382;11.358;2022-10-04T23:34:43;97289.94;;;7.38;91.29
68197;BME280;55019;49.382;11.358;2022-10-04T23:37:19;97293.78;;;7.43;91.54